Latest Weather Observations for Cummins Airport

IDS60801

Issued at 8:01 am CST Friday 27 May 2016 (issued every 30 minutes, with the page automatically refreshed every 10 minutes)

About weather observations | Map of weather stations | Latest weather observations for SA | Other Formats
Station Details ID: 018217 Name: CUMMINS AERO Lat: -34.25 Lon: 135.71 Height: 60.11 m
Data from the previous 72 hours. | See also: Recent months at Cummins Airport
Date/Time
CST
Temp
°C
App
Temp
°C
Dew
Point
Rel
Hum
%
Delta-T
°C
Wind Press
QNH
hPa
Press
MSL
hPa
Rain
since 9 am
mm
Dir
 
Spd
km/h
Gust
km/h
Spd
kts
Gust
kts
27/08:00am 10.9 8.4 9.8 93 0.6 NW 13 17 7 9 1010.0 1010.0 3.2
27/07:30am 9.3 6.8 8.4 94 0.4 NW 11 13 6 7 1010.2 1010.2 3.0
27/07:00am 10.5 8.6 10.5 100 0.0 WNW 11 13 6 7 1010.4 1010.4 3.0
27/06:30am 10.3 8.0 10.3 100 0.0 NW 13 15 7 8 1010.4 1010.4 3.0
27/06:00am 11.3 8.8 11.1 99 0.1 WNW 15 19 8 10 1010.5 1010.5 3.0
27/05:30am 10.8 8.5 10.3 97 0.3 WNW 13 17 7 9 1010.6 1010.6 2.8
27/05:00am 11.1 8.5 10.6 97 0.3 W 15 17 8 9 1010.5 1010.5 2.6
27/04:30am 11.1 8.2 10.9 99 0.1 WNW 17 35 9 19 1010.7 1010.7 2.6
27/04:00am 11.3 7.3 10.4 94 0.5 W 22 32 12 17 1010.5 1010.5 2.4
27/03:44am 12.0 6.1 11.1 94 0.5 WNW 33 54 18 29 1010.6 1010.6 2.0
27/03:38am 12.2 8.7 12.2 100 0.0 NW 22 48 12 26 1010.7 1010.7 1.8
27/03:30am 12.0 9.4 12.0 100 0.0 NW 17 24 9 13 1010.3 1010.3 1.8
27/03:00am 11.5 9.4 11.3 99 0.1 NW 13 17 7 9 1010.8 1010.8 1.8
27/02:30am 12.1 8.9 11.8 98 0.2 WNW 20 30 11 16 1011.0 1010.9 1.8
27/02:13am 12.2 6.8 12.2 100 0.0 NW 32 50 17 27 1011.1 1011.0 1.8
27/02:03am 12.0 8.4 12.0 100 0.0 NNW 22 50 12 27 1011.2 1011.1 1.4
27/02:00am 11.7 9.0 11.7 100 0.0 N 17 24 9 13 1010.8 1010.8 0.4
27/01:30am 11.5 8.4 11.5 100 0.0 NNW 19 24 10 13 1010.7 1010.7 0.2
27/01:00am 11.8 8.8 11.8 100 0.0 NNW 19 24 10 13 1011.3 1011.2 0.2
27/12:30am 11.7 8.6 11.7 100 0.0 NNW 19 24 10 13 1011.6 1011.5 0.2
27/12:00am 11.6 8.2 11.4 99 0.1 NNW 20 26 11 14 1012.0 1011.9 0.2
 
Date/Time
CST
Temp
°C
App
Temp
°C
Dew
Point
Rel
Hum
%
Delta-T
°C
Wind Press
QNH
hPa
Press
MSL
hPa
Rain
since 9 am
mm
Dir
 
Spd
km/h
Gust
km/h
Spd
kts
Gust
kts
26/11:30pm 11.4 8.0 11.4 100 0.0 NNW 20 28 11 15 1012.0 1011.9 0.2
26/11:00pm 11.4 8.0 11.4 100 0.0 NNW 20 26 11 14 1011.8 1011.7 0.2
26/10:30pm 11.2 9.1 11.2 100 0.0 N 13 17 7 9 1012.2 1012.1 0.2
26/10:00pm 10.8 9.0 10.8 100 0.0 N 11 13 6 7 1012.5 1012.4 0.2
26/09:30pm 10.8 8.6 10.8 100 0.0 N 13 15 7 8 1012.5 1012.4 0.2
26/09:00pm 10.1 8.8 10.1 100 0.0 NNW 7 9 4 5 1012.5 1012.4 0.2
26/08:30pm 10.4 9.4 10.2 99 0.1 N 6 9 3 5 1012.6 1012.5 0.2
26/08:00pm 10.9 9.8 10.7 99 0.1 NNW 7 9 4 5 1012.5 1012.4 0.2
26/07:30pm 11.6 10.3 11.4 99 0.1 NNW 9 9 5 5 1012.7 1012.6 0.0
26/07:00pm 12.3 10.9 12.1 99 0.1 NNW 11 13 6 7 1012.6 1012.5 0.0
26/06:30pm 12.7 12.2 12.2 97 0.3 WNW 6 7 3 4 1012.4 1012.3 0.0
26/06:00pm 12.7 12.2 12.1 96 0.3 WNW 6 7 3 4 1012.0 1011.9 0.0
26/05:30pm 13.0 12.0 12.4 96 0.3 NW 9 11 5 6 1011.7 1011.6 0.0
26/05:00pm 13.6 11.5 12.5 93 0.6 WNW 15 22 8 12 1011.7 1011.6 0.0
26/04:30pm 14.4 12.2 12.1 86 1.2 WSW 15 20 8 11 1011.4 1011.3 0.0
26/04:00pm 15.1 12.8 11.9 81 1.7 WNW 15 20 8 11 1011.4 1011.3 0.0
26/03:30pm 15.4 13.6 12.0 80 1.9 W 13 19 7 10 1011.0 1010.9 0.0
26/03:00pm 15.4 13.9 11.8 79 2.0 WNW 11 15 6 8 1011.1 1011.0 0.0
26/02:30pm 13.7 10.8 12.3 91 0.8 WNW 19 26 10 14 1011.0 1010.9 0.0
26/02:00pm 16.4 13.0 10.5 68 3.1 W 19 24 10 13 1010.5 1010.5 0.0
26/01:30pm 16.7 12.9 9.1 61 3.9 WNW 19 24 10 13 1010.5 1010.5 0.0
26/01:00pm 17.3 13.8 10.9 66 3.4 WNW 20 26 11 14 1011.0 1010.9 0.0
26/12:30pm 17.0 13.5 10.8 67 3.3 W 20 28 11 15 1011.0 1010.9 0.0
26/12:00pm 16.4 12.3 8.6 60 4.0 W 20 26 11 14 1011.3 1011.2 0.0
26/11:30am 16.2 12.8 10.5 69 3.0 W 19 28 10 15 1011.6 1011.5 0.0
26/11:00am 15.7 13.7 11.5 76 2.3 W 13 20 7 11 1011.7 1011.6 0.0
26/10:30am 15.1 13.4 11.3 78 2.0 W 11 15 6 8 1011.8 1011.7 0.0
26/10:00am 14.5 14.7 11.8 84 1.5 N 2 6 1 3 1011.6 1011.5 0.0
26/09:30am 12.9 12.7 12.9 100 0.0 N 6 7 3 4 1011.6 1011.5 0.0
26/09:00am 11.8 10.7 11.8 100 0.0 NNE 9 9 5 5 1011.2 1011.1 34.0
26/08:30am 10.0 8.7 10.0 100 0.0 NNE 7 7 4 4 1011.1 1011.0 34.0
26/08:00am 8.2 7.8 8.2 100 0.0 CALM 0 0 0 0 1010.6 1010.6 34.0
26/07:30am 8.0 7.5 8.0 100 0.0 CALM 0 0 0 0 1010.6 1010.6 34.0
26/07:00am 9.2 7.9 9.2 100 0.0 NNE 6 7 3 4 1010.4 1010.4 34.0
26/06:30am 9.3 7.8 9.3 100 0.0 ESE 7 9 4 5 1010.2 1010.2 34.0
26/06:00am 10.2 8.6 10.2 100 0.0 WSW 9 11 5 6 1010.1 1010.1 34.0
26/05:30am 9.7 9.7 9.7 100 0.0 CALM 0 0 0 0 1010.0 1010.0 34.0
26/05:00am 10.6 10.8 10.6 100 0.0 CALM 0 0 0 0 1009.8 1009.8 34.0
26/04:30am 11.0 9.6 11.0 100 0.0 NNW 9 13 5 7 1009.8 1009.8 34.0
26/04:00am 10.0 10.1 10.0 100 0.0 CALM 0 0 0 0 1009.6 1009.6 34.0
26/03:30am 9.7 9.7 9.7 100 0.0 CALM 0 0 0 0 1009.3 1009.3 34.0
26/03:00am 10.5 9.4 10.5 100 0.0 NNW 7 7 4 4 1009.3 1009.3 34.0
26/02:30am 10.6 10.8 10.6 100 0.0 CALM 0 0 0 0 1009.2 1009.2 34.0
26/02:00am 10.7 10.2 10.7 100 0.0 N 4 7 2 4 1009.3 1009.3 34.0
26/01:30am 10.5 10.7 10.5 100 0.0 CALM 0 0 0 0 1008.9 1008.9 34.0
26/01:00am 11.5 10.6 11.5 100 0.0 WNW 7 9 4 5 1008.9 1008.9 34.0
26/12:30am 11.3 10.4 11.3 100 0.0 W 7 11 4 6 1009.1 1009.1 34.0
26/12:00am 11.9 11.4 11.9 100 0.0 SW 6 7 3 4 1009.0 1009.0 34.0
 
Date/Time
CST
Temp
°C
App
Temp
°C
Dew
Point
Rel
Hum
%
Delta-T
°C
Wind Press
QNH
hPa
Press
MSL
hPa
Rain
since 9 am
mm
Dir
 
Spd
km/h
Gust
km/h
Spd
kts
Gust
kts
25/11:30pm 12.0 10.2 12.0 100 0.0 W 13 15 7 8 1009.1 1009.1 33.8
25/11:00pm 12.2 10.8 12.2 100 0.0 S 11 15 6 8 1008.1 1008.1 33.8
25/10:30pm 12.6 10.9 12.6 100 0.0 WSW 13 17 7 9 1008.2 1008.2 33.8
25/10:00pm 12.8 12.0 12.8 100 0.0 S 9 13 5 7 1007.9 1007.9 33.8
25/09:30pm 13.0 11.1 13.0 100 0.0 S 15 19 8 10 1007.8 1007.8 33.8
25/09:00pm 13.3 10.7 13.3 100 0.0 S 19 22 10 12 1007.7 1007.7 33.8
25/08:30pm 13.4 10.3 13.4 100 0.0 S 22 28 12 15 1007.6 1007.6 33.4
25/08:00pm 13.9 12.7 13.9 100 0.0 S 13 17 7 9 1006.9 1006.9 31.2
25/07:30pm 14.3 14.9 14.3 100 0.0 NW 4 11 2 6 1007.0 1007.0 26.4
25/07:00pm 14.3 13.6 14.3 100 0.0 N 11 13 6 7 1006.7 1006.7 18.4
25/06:30pm 14.3 14.3 14.3 100 0.0 N 7 11 4 6 1006.5 1006.5 12.2
25/06:00pm 14.3 14.0 14.3 100 0.0 N 9 11 5 6 1006.0 1006.0 8.6
25/05:30pm 14.4 13.3 14.4 100 0.0 N 13 15 7 8 1006.2 1006.2 6.8
25/05:00pm 14.4 14.1 14.4 100 0.0 NNW 9 11 5 6 1006.3 1006.3 6.4
25/04:30pm 14.2 13.1 14.2 100 0.0 N 13 15 7 8 1006.4 1006.4 6.4
25/04:00pm 14.4 14.5 14.4 100 0.0 N 7 11 4 6 1006.4 1006.4 6.2
25/03:30pm 14.3 12.8 14.3 100 0.0 N 15 17 8 9 1006.5 1006.5 5.2
25/03:00pm 14.5 12.7 14.5 100 0.0 N 17 20 9 11 1006.4 1006.4 4.0
25/02:30pm 14.2 12.3 14.2 100 0.0 NNW 17 24 9 13 1006.6 1006.6 2.2
25/02:00pm 14.8 12.4 13.7 93 0.6 N 19 26 10 14 1006.7 1006.7 0.0
25/01:30pm 15.2 12.5 13.4 89 1.0 NNW 20 28 11 15 1007.0 1007.0 0.0
25/01:00pm 15.4 12.4 12.7 84 1.5 N 20 28 11 15 1006.6 1006.6 0.0
25/12:30pm 15.4 12.4 12.7 84 1.5 N 20 28 11 15 1007.0 1007.0 0.0
25/12:00pm 15.1 11.7 12.4 84 1.5 N 22 35 12 19 1007.7 1007.7 0.0
25/11:30am 14.5 10.7 12.4 87 1.1 N 24 32 13 17 1008.1 1008.1 0.0
25/11:00am 14.5 10.3 12.4 87 1.1 N 26 35 14 19 1008.8 1008.8 0.0
25/10:30am 13.9 10.0 12.1 89 1.0 N 24 33 13 18 1009.0 1009.0 0.0
25/10:00am 13.7 9.7 11.9 89 1.0 N 24 35 13 19 1008.9 1008.9 0.0
25/09:30am 13.2 10.0 11.9 92 0.7 N 20 28 11 15 1009.3 1009.3 0.0
25/09:00am 12.5 9.1 11.2 92 0.7 N 20 30 11 16 1009.5 1009.5 2.2
25/08:30am 12.2 8.3 10.8 91 0.7 N 22 32 12 17 1009.4 1009.4 2.2
25/08:00am 12.3 7.2 10.7 90 0.8 N 28 37 15 20 1009.5 1009.5 2.0
25/07:30am 11.9 6.8 10.6 92 0.7 N 28 39 15 21 1009.6 1009.6 2.0
25/07:00am 11.7 6.0 9.9 89 0.9 N 30 37 16 20 1009.4 1009.4 2.0
25/06:30am 12.0 7.0 9.4 84 1.3 N 26 35 14 19 1009.9 1009.9 1.8
25/06:00am 12.6 9.1 8.7 77 2.0 N 17 26 9 14 1010.1 1010.1 1.2
25/05:30am 12.5 8.6 9.3 81 1.6 NNE 20 28 11 15 1009.6 1009.6 1.2
25/05:00am 12.6 8.3 9.2 80 1.7 N 22 28 12 15 1009.9 1009.9 1.0
25/04:30am 13.3 8.4 8.6 73 2.4 N 24 32 13 17 1009.8 1009.8 0.8
25/04:00am 13.3 9.0 9.2 76 2.1 N 22 30 12 16 1010.0 1010.0 0.8
25/03:30am 13.2 9.7 10.2 82 1.6 N 19 28 10 15 1010.2 1010.2 0.8
25/03:00am 13.3 9.4 8.6 73 2.4 N 19 24 10 13 1010.6 1010.6 0.8
25/02:30am 12.7 9.4 8.2 74 2.2 N 15 17 8 9 1011.4 1011.3 0.8
25/02:00am 13.4 10.4 7.8 69 2.8 N 13 17 7 9 1011.5 1011.4 0.4
25/01:30am 12.7 9.8 8.2 74 2.2 N 13 17 7 9 1011.7 1011.6 0.4
25/01:00am 13.4 11.1 7.4 67 2.9 NNE 9 13 5 7 1011.5 1011.4 0.2
25/12:30am 13.7 11.3 7.2 65 3.2 NNE 9 11 5 6 1011.7 1011.6 0.2
25/12:00am 14.3 11.6 5.7 56 4.1 NE 9 11 5 6 1011.9 1011.8 0.2
 
Date/Time
CST
Temp
°C
App
Temp
°C
Dew
Point
Rel
Hum
%
Delta-T
°C
Wind Press
QNH
hPa
Press
MSL
hPa
Rain
since 9 am
mm
Dir
 
Spd
km/h
Gust
km/h
Spd
kts
Gust
kts
24/11:30pm 14.6 8.9 5.1 53 4.5 NNE 24 35 13 19 1011.8 1011.7 0.0
24/11:00pm 16.7 10.3 1.2 35 6.8 N 24 33 13 18 1011.8 1011.7 0.0
24/10:30pm 16.5 10.6 1.4 36 6.7 NNE 22 32 12 17 1011.8 1011.7 0.0
24/10:00pm 16.6 10.2 1.1 35 6.8 NNE 24 32 13 17 1012.1 1012.0 0.0
24/09:30pm 16.7 10.8 1.6 36 6.7 NNE 22 30 12 16 1012.6 1012.5 0.0
24/09:00pm 16.5 11.3 2.5 39 6.3 NNE 19 30 10 16 1013.1 1013.0 0.0
24/08:30pm 16.3 10.6 3.0 41 6.1 NNE 22 26 12 14 1013.2 1013.1 0.0
24/08:00pm 16.1 10.9 3.5 43 5.8 NNE 20 28 11 15 1013.5 1013.4 0.0
24/07:30pm 14.6 10.2 4.6 51 4.7 NNE 17 20 9 11 1013.7 1013.6 0.0
24/07:00pm 15.0 10.5 4.4 49 4.9 NNE 17 20 9 11 1013.9 1013.8 0.0
24/06:30pm 15.3 10.9 4.7 49 5.0 NNE 17 20 9 11 1013.7 1013.6 0.0
24/06:00pm 15.6 11.9 4.6 48 5.2 NE 13 17 7 9 1013.7 1013.6 0.0
24/05:30pm 17.0 13.0 5.0 45 5.7 NNE 15 20 8 11 1013.9 1013.8 0.0
24/05:00pm 18.3 13.9 4.8 41 6.5 NNE 17 20 9 11 1014.2 1014.1 0.0
24/04:30pm 19.0 14.3 5.1 40 6.8 NNE 19 24 10 13 1014.4 1014.3 0.0
24/04:00pm 19.3 15.3 6.8 44 6.3 N 17 20 9 11 1014.8 1014.7 0.0
24/03:30pm 19.7 14.7 6.4 42 6.7 N 22 30 12 16 1015.0 1014.9 0.0
24/03:00pm 19.9 14.4 5.9 40 7.0 N 24 33 13 18 1015.2 1015.1 0.0
24/02:30pm 19.5 14.4 5.9 41 6.7 N 22 33 12 18 1015.6 1015.5 0.0
24/02:00pm 20.0 15.2 7.4 44 6.5 N 22 32 12 17 1016.3 1016.2 0.0
24/01:30pm 19.7 15.5 8.1 47 6.0 N 20 32 11 17 1016.8 1016.7 0.0
24/01:00pm 19.5 15.1 8.8 50 5.6 N 22 32 12 17 1017.4 1017.4 0.0
24/12:30pm 18.5 14.0 8.5 52 5.2 N 22 33 12 18 1018.1 1018.1 0.0
24/12:00pm 18.7 14.5 9.8 56 4.7 N 22 28 12 15 1018.8 1018.8 0.0
24/11:30am 18.0 14.4 9.9 59 4.3 NNE 19 26 10 14 1019.5 1019.5 0.0
24/11:00am 17.3 13.8 10.9 66 3.4 N 20 26 11 14 1020.3 1020.3 0.0
24/10:30am 16.5 13.3 11.4 72 2.8 NNE 19 24 10 13 1020.8 1020.8 0.0
24/10:00am 15.4 12.5 11.0 75 2.3 NNE 17 20 9 11 1021.1 1021.1 0.0
24/09:30am 14.4 12.2 12.1 86 1.2 NNE 15 20 8 11 1021.3 1021.3 0.0
24/09:00am 12.4 10.1 11.6 95 0.4 NNE 15 20 8 11 1021.4 1021.4 0.0
24/08:30am 10.3 8.3 10.3 100 0.0 NE 11 15 6 8 1021.4 1021.4 0.0

Other Formats:

Comma delimited format used in spreadsheet applications
http://www.bom.gov.au/fwo/IDS60801/IDS60801.95663.axf

JavaScript Object Notation format (JSON) in row-major order
http://www.bom.gov.au/fwo/IDS60801/IDS60801.95663.json